sensor_id;sensor_type;location;lat;lon;timestamp;P1;durP1;ratioP1;P2;durP2;ratioP2
42118;SDS011;27783;42.782;23.274;2023-12-14T00:00:52;34.88;;;20.90;;
42118;SDS011;27783;42.782;23.274;2023-12-14T00:03:25;40.83;;;18.75;;
42118;SDS011;27783;42.782;23.274;2023-12-14T00:05:51;41.40;;;20.77;;
42118;SDS011;27783;42.782;23.274;2023-12-14T00:08:17;45.42;;;21.15;;
42118;SDS011;27783;42.782;23.274;2023-12-14T00:10:43;50.90;;;24.83;;
42118;SDS011;27783;42.782;23.274;2023-12-14T00:13:10;47.10;;;23.90;;
42118;SDS011;27783;42.782;23.274;2023-12-14T00:15:42;40.00;;;22.98;;
42118;SDS011;27783;42.782;23.274;2023-12-14T00:18:11;53.33;;;27.30;;
42118;SDS011;27783;42.782;23.274;2023-12-14T00:20:38;41.03;;;20.90;;
42118;SDS011;27783;42.782;23.274;2023-12-14T00:23:04;38.55;;;20.60;;
42118;SDS011;27783;42.782;23.274;2023-12-14T00:27:59;62.65;;;39.70;;
42118;SDS011;27783;42.782;23.274;2023-12-14T00:30:27;50.30;;;28.00;;
42118;SDS011;27783;42.782;23.274;2023-12-14T00:32:56;99.60;;;58.85;;
42118;SDS011;27783;42.782;23.274;2023-12-14T00:35:23;50.50;;;27.00;;
42118;SDS011;27783;42.782;23.274;2023-12-14T00:37:52;43.10;;;23.63;;
42118;SDS011;27783;42.782;23.274;2023-12-14T00:40:18;42.40;;;21.98;;
42118;SDS011;27783;42.782;23.274;2023-12-14T00:42:45;47.03;;;26.27;;
42118;SDS011;27783;42.782;23.274;2023-12-14T00:48:09;39.05;;;20.80;;
42118;SDS011;27783;42.782;23.274;2023-12-14T00:50:35;34.28;;;19.17;;
42118;SDS011;27783;42.782;23.274;2023-12-14T00:53:00;31.55;;;18.40;;
42118;SDS011;27783;42.782;23.274;2023-12-14T00:55:27;29.80;;;17.42;;
42118;SDS011;27783;42.782;23.274;2023-12-14T00:57:55;35.58;;;16.30;;
42118;SDS011;27783;42.782;23.274;2023-12-14T01:00:21;34.05;;;16.52;;
42118;SDS011;27783;42.782;23.274;2023-12-14T01:02:48;28.17;;;14.27;;
42118;SDS011;27783;42.782;23.274;2023-12-14T01:05:13;23.38;;;12.57;;
42118;SDS011;27783;42.782;23.274;2023-12-14T01:07:39;25.92;;;13.02;;
42118;SDS011;27783;42.782;23.274;2023-12-14T01:10:07;18.13;;;11.98;;
42118;SDS011;27783;42.782;23.274;2023-12-14T01:12:43;21.05;;;12.35;;
42118;SDS011;27783;42.782;23.274;2023-12-14T01:15:11;22.63;;;13.75;;
42118;SDS011;27783;42.782;23.274;2023-12-14T01:17:38;17.02;;;10.38;;
42118;SDS011;27783;42.782;23.274;2023-12-14T01:20:10;25.75;;;14.13;;
42118;SDS011;27783;42.782;23.274;2023-12-14T01:25:19;36.15;;;17.33;;
42118;SDS011;27783;42.782;23.274;2023-12-14T01:27:56;24.98;;;15.27;;
42118;SDS011;27783;42.782;23.274;2023-12-14T01:30:22;46.10;;;24.10;;
42118;SDS011;27783;42.782;23.274;2023-12-14T01:32:49;39.10;;;20.92;;
42118;SDS011;27783;42.782;23.274;2023-12-14T01:35:15;46.25;;;21.45;;
42118;SDS011;27783;42.782;23.274;2023-12-14T01:37:41;47.25;;;29.20;;
42118;SDS011;27783;42.782;23.274;2023-12-14T01:40:09;46.17;;;24.55;;
42118;SDS011;27783;42.782;23.274;2023-12-14T01:42:38;40.58;;;23.67;;
42118;SDS011;27783;42.782;23.274;2023-12-14T01:45:04;49.22;;;27.13;;
42118;SDS011;27783;42.782;23.274;2023-12-14T01:47:31;49.75;;;25.83;;
42118;SDS011;27783;42.782;23.274;2023-12-14T01:50:00;49.45;;;27.58;;
42118;SDS011;27783;42.782;23.274;2023-12-14T01:52:26;38.65;;;25.05;;
42118;SDS011;27783;42.782;23.274;2023-12-14T01:54:56;34.60;;;18.65;;
42118;SDS011;27783;42.782;23.274;2023-12-14T01:59:49;39.70;;;23.90;;
42118;SDS011;27783;42.782;23.274;2023-12-14T02:02:17;51.95;;;25.95;;
42118;SDS011;27783;42.782;23.274;2023-12-14T02:04:43;62.72;;;30.63;;
42118;SDS011;27783;42.782;23.274;2023-12-14T02:07:09;55.08;;;27.67;;
42118;SDS011;27783;42.782;23.274;2023-12-14T02:09:36;43.85;;;24.10;;
42118;SDS011;27783;42.782;23.274;2023-12-14T02:12:02;47.55;;;25.67;;
42118;SDS011;27783;42.782;23.274;2023-12-14T02:14:30;41.78;;;25.02;;
42118;SDS011;27783;42.782;23.274;2023-12-14T02:16:57;37.70;;;20.95;;
42118;SDS011;27783;42.782;23.274;2023-12-14T02:19:28;46.55;;;27.48;;
42118;SDS011;27783;42.782;23.274;2023-12-14T02:21:54;53.70;;;25.58;;
42118;SDS011;27783;42.782;23.274;2023-12-14T02:24:27;41.33;;;25.45;;
42118;SDS011;27783;42.782;23.274;2023-12-14T02:26:53;32.55;;;19.48;;
42118;SDS011;27783;42.782;23.274;2023-12-14T02:29:19;36.45;;;24.13;;
42118;SDS011;27783;42.782;23.274;2023-12-14T02:31:44;31.40;;;20.75;;
42118;SDS011;27783;42.782;23.274;2023-12-14T02:34:29;43.08;;;22.63;;
42118;SDS011;27783;42.782;23.274;2023-12-14T02:36:56;35.28;;;22.08;;
42118;SDS011;27783;42.782;23.274;2023-12-14T02:39:21;37.67;;;20.60;;
42118;SDS011;27783;42.782;23.274;2023-12-14T02:41:47;51.15;;;28.00;;
42118;SDS011;27783;42.782;23.274;2023-12-14T02:44:13;36.08;;;20.77;;
42118;SDS011;27783;42.782;23.274;2023-12-14T02:46:39;40.28;;;23.05;;
42118;SDS011;27783;42.782;23.274;2023-12-14T02:49:05;36.13;;;19.50;;
42118;SDS011;27783;42.782;23.274;2023-12-14T02:51:32;33.55;;;18.80;;
42118;SDS011;27783;42.782;23.274;2023-12-14T02:53:57;32.60;;;18.70;;
42118;SDS011;27783;42.782;23.274;2023-12-14T02:56:27;30.45;;;17.75;;
42118;SDS011;27783;42.782;23.274;2023-12-14T02:58:55;26.80;;;16.23;;
42118;SDS011;27783;42.782;23.274;2023-12-14T03:01:20;31.75;;;17.73;;
42118;SDS011;27783;42.782;23.274;2023-12-14T03:04:00;27.92;;;15.55;;
42118;SDS011;27783;42.782;23.274;2023-12-14T03:06:52;38.13;;;19.92;;
42118;SDS011;27783;42.782;23.274;2023-12-14T03:09:29;36.55;;;19.85;;
42118;SDS011;27783;42.782;23.274;2023-12-14T03:11:55;32.05;;;19.13;;
42118;SDS011;27783;42.782;23.274;2023-12-14T03:14:21;29.48;;;18.08;;
42118;SDS011;27783;42.782;23.274;2023-12-14T03:16:47;38.75;;;18.40;;
42118;SDS011;27783;42.782;23.274;2023-12-14T03:19:18;39.38;;;19.98;;
42118;SDS011;27783;42.782;23.274;2023-12-14T03:21:46;35.88;;;20.10;;
42118;SDS011;27783;42.782;23.274;2023-12-14T03:24:30;45.30;;;22.42;;
42118;SDS011;27783;42.782;23.274;2023-12-14T03:26:59;41.88;;;22.40;;
42118;SDS011;27783;42.782;23.274;2023-12-14T03:32:12;43.03;;;22.85;;
42118;SDS011;27783;42.782;23.274;2023-12-14T03:34:44;50.17;;;26.98;;
42118;SDS011;27783;42.782;23.274;2023-12-14T03:37:12;51.80;;;25.67;;
42118;SDS011;27783;42.782;23.274;2023-12-14T03:39:42;43.60;;;26.75;;
42118;SDS011;27783;42.782;23.274;2023-12-14T03:42:08;57.38;;;28.60;;
42118;SDS011;27783;42.782;23.274;2023-12-14T03:44:34;111.97;;;56.80;;
42118;SDS011;27783;42.782;23.274;2023-12-14T03:47:00;56.88;;;29.90;;
42118;SDS011;27783;42.782;23.274;2023-12-14T03:49:26;65.68;;;33.60;;
42118;SDS011;27783;42.782;23.274;2023-12-14T03:51:51;59.85;;;31.77;;
42118;SDS011;27783;42.782;23.274;2023-12-14T03:54:18;67.25;;;41.90;;
42118;SDS011;27783;42.782;23.274;2023-12-14T03:56:44;47.67;;;26.02;;
42118;SDS011;27783;42.782;23.274;2023-12-14T03:59:12;49.85;;;31.90;;
42118;SDS011;27783;42.782;23.274;2023-12-14T04:01:37;56.60;;;37.35;;
42118;SDS011;27783;42.782;23.274;2023-12-14T04:04:06;62.63;;;42.38;;
42118;SDS011;27783;42.782;23.274;2023-12-14T04:06:32;34.63;;;20.95;;
42118;SDS011;27783;42.782;23.274;2023-12-14T04:09:00;66.03;;;44.45;;
42118;SDS011;27783;42.782;23.274;2023-12-14T04:11:25;46.97;;;32.70;;
42118;SDS011;27783;42.782;23.274;2023-12-14T04:13:56;80.28;;;55.47;;
42118;SDS011;27783;42.782;23.274;2023-12-14T04:16:24;37.30;;;26.65;;
42118;SDS011;27783;42.782;23.274;2023-12-14T04:18:50;29.23;;;16.85;;
42118;SDS011;27783;42.782;23.274;2023-12-14T04:21:16;54.13;;;42.57;;
42118;SDS011;27783;42.782;23.274;2023-12-14T04:23:41;45.25;;;29.63;;
42118;SDS011;27783;42.782;23.274;2023-12-14T04:26:09;31.65;;;20.65;;
42118;SDS011;27783;42.782;23.274;2023-12-14T04:28:58;30.67;;;17.27;;
42118;SDS011;27783;42.782;23.274;2023-12-14T04:31:24;29.63;;;15.27;;
42118;SDS011;27783;42.782;23.274;2023-12-14T04:33:51;25.05;;;15.10;;
42118;SDS011;27783;42.782;23.274;2023-12-14T04:36:19;23.95;;;15.30;;
42118;SDS011;27783;42.782;23.274;2023-12-14T04:38:47;25.05;;;15.23;;
42118;SDS011;27783;42.782;23.274;2023-12-14T04:41:12;41.47;;;21.05;;
42118;SDS011;27783;42.782;23.274;2023-12-14T04:43:39;33.80;;;18.58;;
42118;SDS011;27783;42.782;23.274;2023-12-14T04:46:05;221.57;;;120.10;;
42118;SDS011;27783;42.782;23.274;2023-12-14T04:48:34;26.70;;;17.25;;
42118;SDS011;27783;42.782;23.274;2023-12-14T04:51:01;26.13;;;16.17;;
42118;SDS011;27783;42.782;23.274;2023-12-14T04:53:27;32.03;;;17.60;;
42118;SDS011;27783;42.782;23.274;2023-12-14T04:55:57;27.23;;;16.30;;
42118;SDS011;27783;42.782;23.274;2023-12-14T04:58:39;20.35;;;13.63;;
42118;SDS011;27783;42.782;23.274;2023-12-14T05:01:11;28.73;;;14.32;;
42118;SDS011;27783;42.782;23.274;2023-12-14T05:03:41;26.70;;;16.08;;
42118;SDS011;27783;42.782;23.274;2023-12-14T05:06:10;23.50;;;14.60;;
42118;SDS011;27783;42.782;23.274;2023-12-14T05:08:46;22.67;;;13.95;;
42118;SDS011;27783;42.782;23.274;2023-12-14T05:11:15;20.50;;;13.45;;
42118;SDS011;27783;42.782;23.274;2023-12-14T05:13:41;28.38;;;14.77;;
42118;SDS011;27783;42.782;23.274;2023-12-14T05:16:07;26.10;;;14.13;;
42118;SDS011;27783;42.782;23.274;2023-12-14T05:18:40;20.98;;;12.38;;
42118;SDS011;27783;42.782;23.274;2023-12-14T05:21:07;22.40;;;14.33;;
42118;SDS011;27783;42.782;23.274;2023-12-14T05:23:35;22.73;;;14.30;;
42118;SDS011;27783;42.782;23.274;2023-12-14T05:26:00;20.95;;;14.15;;
42118;SDS011;27783;42.782;23.274;2023-12-14T05:28:25;27.05;;;14.90;;
42118;SDS011;27783;42.782;23.274;2023-12-14T05:30:51;28.98;;;15.18;;
42118;SDS011;27783;42.782;23.274;2023-12-14T05:33:17;31.33;;;15.45;;
42118;SDS011;27783;42.782;23.274;2023-12-14T05:35:43;28.30;;;16.85;;
42118;SDS011;27783;42.782;23.274;2023-12-14T05:38:09;31.30;;;16.67;;
42118;SDS011;27783;42.782;23.274;2023-12-14T05:40:35;34.70;;;17.42;;
42118;SDS011;27783;42.782;23.274;2023-12-14T05:43:00;32.00;;;19.95;;
42118;SDS011;27783;42.782;23.274;2023-12-14T05:45:26;36.67;;;19.05;;
42118;SDS011;27783;42.782;23.274;2023-12-14T05:47:51;35.28;;;16.52;;
42118;SDS011;27783;42.782;23.274;2023-12-14T05:50:17;32.00;;;17.10;;
42118;SDS011;27783;42.782;23.274;2023-12-14T05:52:42;30.75;;;19.00;;
42118;SDS011;27783;42.782;23.274;2023-12-14T05:55:08;29.55;;;18.10;;
42118;SDS011;27783;42.782;23.274;2023-12-14T05:57:37;62.97;;;33.10;;
42118;SDS011;27783;42.782;23.274;2023-12-14T06:00:07;47.13;;;27.92;;
42118;SDS011;27783;42.782;23.274;2023-12-14T06:02:33;47.75;;;27.33;;
42118;SDS011;27783;42.782;23.274;2023-12-14T06:04:58;72.72;;;40.80;;
42118;SDS011;27783;42.782;23.274;2023-12-14T06:07:25;43.50;;;24.20;;
42118;SDS011;27783;42.782;23.274;2023-12-14T06:09:50;41.85;;;25.15;;
42118;SDS011;27783;42.782;23.274;2023-12-14T06:12:16;85.50;;;51.70;;
42118;SDS011;27783;42.782;23.274;2023-12-14T06:14:41;73.82;;;41.97;;
42118;SDS011;27783;42.782;23.274;2023-12-14T06:17:07;93.18;;;48.55;;
42118;SDS011;27783;42.782;23.274;2023-12-14T06:19:32;74.65;;;36.40;;
42118;SDS011;27783;42.782;23.274;2023-12-14T06:21:57;64.15;;;34.08;;
42118;SDS011;27783;42.782;23.274;2023-12-14T06:24:23;57.20;;;34.40;;
42118;SDS011;27783;42.782;23.274;2023-12-14T06:26:49;88.20;;;47.80;;
42118;SDS011;27783;42.782;23.274;2023-12-14T06:29:14;91.07;;;51.97;;
42118;SDS011;27783;42.782;23.274;2023-12-14T06:31:39;92.30;;;48.28;;
42118;SDS011;27783;42.782;23.274;2023-12-14T06:34:05;86.10;;;45.75;;
42118;SDS011;27783;42.782;23.274;2023-12-14T06:36:31;74.75;;;40.95;;
42118;SDS011;27783;42.782;23.274;2023-12-14T06:39:00;93.38;;;47.10;;
42118;SDS011;27783;42.782;23.274;2023-12-14T06:41:27;74.40;;;42.58;;
42118;SDS011;27783;42.782;23.274;2023-12-14T06:43:54;82.07;;;40.40;;
42118;SDS011;27783;42.782;23.274;2023-12-14T06:46:20;59.75;;;33.08;;
42118;SDS011;27783;42.782;23.274;2023-12-14T06:48:47;42.53;;;26.38;;
42118;SDS011;27783;42.782;23.274;2023-12-14T06:51:14;52.03;;;27.63;;
42118;SDS011;27783;42.782;23.274;2023-12-14T06:53:40;48.30;;;27.23;;
42118;SDS011;27783;42.782;23.274;2023-12-14T06:56:06;49.17;;;30.67;;
42118;SDS011;27783;42.782;23.274;2023-12-14T06:58:34;54.05;;;29.00;;
42118;SDS011;27783;42.782;23.274;2023-12-14T07:01:00;47.50;;;27.25;;
42118;SDS011;27783;42.782;23.274;2023-12-14T07:03:25;48.17;;;27.48;;
42118;SDS011;27783;42.782;23.274;2023-12-14T07:05:51;57.35;;;30.77;;
42118;SDS011;27783;42.782;23.274;2023-12-14T07:08:16;77.57;;;45.13;;
42118;SDS011;27783;42.782;23.274;2023-12-14T07:10:41;68.20;;;41.85;;
42118;SDS011;27783;42.782;23.274;2023-12-14T07:13:07;85.55;;;48.28;;
42118;SDS011;27783;42.782;23.274;2023-12-14T07:15:33;77.60;;;49.13;;
42118;SDS011;27783;42.782;23.274;2023-12-14T07:17:58;68.82;;;41.22;;
42118;SDS011;27783;42.782;23.274;2023-12-14T07:20:24;55.72;;;33.60;;
42118;SDS011;27783;42.782;23.274;2023-12-14T07:22:50;55.95;;;29.63;;
42118;SDS011;27783;42.782;23.274;2023-12-14T07:25:15;57.55;;;33.17;;
42118;SDS011;27783;42.782;23.274;2023-12-14T07:27:41;60.65;;;31.10;;
42118;SDS011;27783;42.782;23.274;2023-12-14T07:30:07;53.67;;;31.95;;
42118;SDS011;27783;42.782;23.274;2023-12-14T07:32:34;51.50;;;31.65;;
42118;SDS011;27783;42.782;23.274;2023-12-14T07:34:59;71.05;;;34.80;;
42118;SDS011;27783;42.782;23.274;2023-12-14T07:37:25;70.43;;;40.67;;
42118;SDS011;27783;42.782;23.274;2023-12-14T07:39:50;69.72;;;43.65;;
42118;SDS011;27783;42.782;23.274;2023-12-14T07:42:16;74.75;;;46.22;;
42118;SDS011;27783;42.782;23.274;2023-12-14T07:44:44;71.75;;;45.53;;
42118;SDS011;27783;42.782;23.274;2023-12-14T07:47:11;73.70;;;44.17;;
42118;SDS011;27783;42.782;23.274;2023-12-14T07:49:36;63.33;;;41.63;;
42118;SDS011;27783;42.782;23.274;2023-12-14T07:52:01;50.15;;;33.28;;
42118;SDS011;27783;42.782;23.274;2023-12-14T07:54:27;55.08;;;36.40;;
42118;SDS011;27783;42.782;23.274;2023-12-14T07:56:53;59.28;;;37.17;;
42118;SDS011;27783;42.782;23.274;2023-12-14T07:59:19;99.20;;;51.25;;
42118;SDS011;27783;42.782;23.274;2023-12-14T08:01:44;109.05;;;68.07;;
42118;SDS011;27783;42.782;23.274;2023-12-14T08:04:10;72.10;;;44.95;;
42118;SDS011;27783;42.782;23.274;2023-12-14T08:06:36;45.78;;;30.95;;
42118;SDS011;27783;42.782;23.274;2023-12-14T08:09:04;50.70;;;31.55;;
42118;SDS011;27783;42.782;23.274;2023-12-14T08:11:30;55.97;;;37.53;;
42118;SDS011;27783;42.782;23.274;2023-12-14T08:13:56;63.60;;;42.25;;
42118;SDS011;27783;42.782;23.274;2023-12-14T08:16:21;56.42;;;39.05;;
42118;SDS011;27783;42.782;23.274;2023-12-14T08:18:47;95.13;;;70.05;;
42118;SDS011;27783;42.782;23.274;2023-12-14T08:21:13;86.60;;;61.60;;
42118;SDS011;27783;42.782;23.274;2023-12-14T08:23:39;79.15;;;51.55;;
42118;SDS011;27783;42.782;23.274;2023-12-14T08:26:04;84.07;;;52.95;;
42118;SDS011;27783;42.782;23.274;2023-12-14T08:28:30;87.13;;;55.97;;
42118;SDS011;27783;42.782;23.274;2023-12-14T08:30:55;80.70;;;55.17;;
42118;SDS011;27783;42.782;23.274;2023-12-14T08:33:27;92.32;;;61.80;;
42118;SDS011;27783;42.782;23.274;2023-12-14T08:35:52;78.88;;;51.60;;
42118;SDS011;27783;42.782;23.274;2023-12-14T08:38:17;79.13;;;50.35;;
42118;SDS011;27783;42.782;23.274;2023-12-14T08:40:43;69.60;;;47.80;;
42118;SDS011;27783;42.782;23.274;2023-12-14T08:43:08;81.22;;;49.25;;
42118;SDS011;27783;42.782;23.274;2023-12-14T08:45:33;64.50;;;45.10;;
42118;SDS011;27783;42.782;23.274;2023-12-14T08:47:59;70.25;;;51.08;;
42118;SDS011;27783;42.782;23.274;2023-12-14T08:50:24;79.55;;;50.83;;
42118;SDS011;27783;42.782;23.274;2023-12-14T08:52:51;91.03;;;59.58;;
42118;SDS011;27783;42.782;23.274;2023-12-14T08:55:17;81.43;;;51.13;;
42118;SDS011;27783;42.782;23.274;2023-12-14T08:57:43;81.93;;;52.10;;
42118;SDS011;27783;42.782;23.274;2023-12-14T09:00:08;83.68;;;52.63;;
42118;SDS011;27783;42.782;23.274;2023-12-14T09:02:35;69.28;;;45.75;;
42118;SDS011;27783;42.782;23.274;2023-12-14T09:05:00;65.15;;;44.42;;
42118;SDS011;27783;42.782;23.274;2023-12-14T09:07:26;65.93;;;46.10;;
42118;SDS011;27783;42.782;23.274;2023-12-14T09:09:51;79.13;;;52.75;;
42118;SDS011;27783;42.782;23.274;2023-12-14T09:12:17;88.80;;;56.60;;
42118;SDS011;27783;42.782;23.274;2023-12-14T09:14:42;77.28;;;49.78;;
42118;SDS011;27783;42.782;23.274;2023-12-14T09:17:07;75.88;;;51.17;;
42118;SDS011;27783;42.782;23.274;2023-12-14T09:19:33;71.65;;;44.20;;
42118;SDS011;27783;42.782;23.274;2023-12-14T09:21:58;70.88;;;50.42;;
42118;SDS011;27783;42.782;23.274;2023-12-14T09:24:24;56.10;;;39.70;;
42118;SDS011;27783;42.782;23.274;2023-12-14T09:26:49;64.45;;;42.20;;
42118;SDS011;27783;42.782;23.274;2023-12-14T09:29:15;67.47;;;46.35;;
42118;SDS011;27783;42.782;23.274;2023-12-14T09:31:45;67.38;;;45.67;;
42118;SDS011;27783;42.782;23.274;2023-12-14T09:34:10;72.25;;;48.38;;
42118;SDS011;27783;42.782;23.274;2023-12-14T09:36:36;67.55;;;45.10;;
42118;SDS011;27783;42.782;23.274;2023-12-14T09:39:02;55.90;;;38.03;;
42118;SDS011;27783;42.782;23.274;2023-12-14T09:41:28;45.47;;;34.30;;
42118;SDS011;27783;42.782;23.274;2023-12-14T09:43:53;38.08;;;29.10;;
42118;SDS011;27783;42.782;23.274;2023-12-14T09:46:20;43.17;;;30.23;;
42118;SDS011;27783;42.782;23.274;2023-12-14T09:48:46;43.05;;;30.02;;
42118;SDS011;27783;42.782;23.274;2023-12-14T09:51:13;41.50;;;31.90;;
42118;SDS011;27783;42.782;23.274;2023-12-14T09:53:40;49.28;;;34.30;;
42118;SDS011;27783;42.782;23.274;2023-12-14T09:56:06;38.55;;;31.17;;
42118;SDS011;27783;42.782;23.274;2023-12-14T09:58:32;38.05;;;31.27;;
42118;SDS011;27783;42.782;23.274;2023-12-14T10:00:58;42.80;;;27.35;;
42118;SDS011;27783;42.782;23.274;2023-12-14T10:03:26;38.85;;;30.05;;
42118;SDS011;27783;42.782;23.274;2023-12-14T10:05:56;44.72;;;29.27;;
42118;SDS011;27783;42.782;23.274;2023-12-14T10:08:23;34.95;;;29.15;;
42118;SDS011;27783;42.782;23.274;2023-12-14T10:10:50;33.97;;;27.20;;
42118;SDS011;27783;42.782;23.274;2023-12-14T10:13:21;36.22;;;27.48;;
42118;SDS011;27783;42.782;23.274;2023-12-14T10:16:02;30.45;;;25.15;;
42118;SDS011;27783;42.782;23.274;2023-12-14T10:18:28;43.45;;;37.30;;
42118;SDS011;27783;42.782;23.274;2023-12-14T10:20:54;36.38;;;29.90;;
42118;SDS011;27783;42.782;23.274;2023-12-14T10:23:20;32.13;;;23.20;;
42118;SDS011;27783;42.782;23.274;2023-12-14T10:25:46;32.53;;;23.80;;
42118;SDS011;27783;42.782;23.274;2023-12-14T10:28:12;31.17;;;23.67;;
42118;SDS011;27783;42.782;23.274;2023-12-14T10:30:41;31.33;;;22.20;;
42118;SDS011;27783;42.782;23.274;2023-12-14T10:33:07;30.52;;;23.33;;
42118;SDS011;27783;42.782;23.274;2023-12-14T10:35:33;27.20;;;23.85;;
42118;SDS011;27783;42.782;23.274;2023-12-14T10:38:01;37.13;;;27.05;;
42118;SDS011;27783;42.782;23.274;2023-12-14T10:40:29;34.22;;;27.13;;
42118;SDS011;27783;42.782;23.274;2023-12-14T10:42:56;34.50;;;26.48;;
42118;SDS011;27783;42.782;23.274;2023-12-14T10:45:25;35.15;;;27.83;;
42118;SDS011;27783;42.782;23.274;2023-12-14T10:47:58;37.00;;;25.70;;
42118;SDS011;27783;42.782;23.274;2023-12-14T10:50:29;37.92;;;26.23;;
42118;SDS011;27783;42.782;23.274;2023-12-14T10:52:56;35.03;;;23.17;;
42118;SDS011;27783;42.782;23.274;2023-12-14T10:55:33;27.20;;;18.00;;
42118;SDS011;27783;42.782;23.274;2023-12-14T10:58:03;12.57;;;11.23;;
42118;SDS011;27783;42.782;23.274;2023-12-14T11:00:30;9.60;;;6.90;;
42118;SDS011;27783;42.782;23.274;2023-12-14T11:02:59;10.30;;;5.60;;
42118;SDS011;27783;42.782;23.274;2023-12-14T11:05:26;7.43;;;4.97;;
42118;SDS011;27783;42.782;23.274;2023-12-14T11:07:56;5.55;;;4.07;;
42118;SDS011;27783;42.782;23.274;2023-12-14T11:10:28;6.68;;;3.65;;
42118;SDS011;27783;42.782;23.274;2023-12-14T11:13:03;5.75;;;3.03;;
42118;SDS011;27783;42.782;23.274;2023-12-14T11:15:35;6.57;;;4.53;;
42118;SDS011;27783;42.782;23.274;2023-12-14T11:23:11;4.85;;;3.35;;
42118;SDS011;27783;42.782;23.274;2023-12-14T11:25:39;3.03;;;2.58;;
42118;SDS011;27783;42.782;23.274;2023-12-14T11:28:06;3.87;;;2.00;;
42118;SDS011;27783;42.782;23.274;2023-12-14T11:30:33;4.00;;;2.60;;
42118;SDS011;27783;42.782;23.274;2023-12-14T11:32:58;4.38;;;2.60;;
42118;SDS011;27783;42.782;23.274;2023-12-14T11:35:24;4.13;;;2.55;;
42118;SDS011;27783;42.782;23.274;2023-12-14T11:37:49;4.07;;;2.03;;
42118;SDS011;27783;42.782;23.274;2023-12-14T11:40:15;5.00;;;2.38;;
42118;SDS011;27783;42.782;23.274;2023-12-14T11:42:57;5.43;;;1.98;;
42118;SDS011;27783;42.782;23.274;2023-12-14T11:45:37;3.40;;;2.05;;
42118;SDS011;27783;42.782;23.274;2023-12-14T11:48:04;4.10;;;1.88;;
42118;SDS011;27783;42.782;23.274;2023-12-14T11:50:31;2.95;;;1.80;;
42118;SDS011;27783;42.782;23.274;2023-12-14T11:52:58;11.80;;;2.72;;
42118;SDS011;27783;42.782;23.274;2023-12-14T11:55:30;13.65;;;2.75;;
42118;SDS011;27783;42.782;23.274;2023-12-14T11:57:57;8.77;;;4.05;;
42118;SDS011;27783;42.782;23.274;2023-12-14T12:00:24;4.88;;;2.45;;
42118;SDS011;27783;42.782;23.274;2023-12-14T12:02:50;5.13;;;3.50;;
42118;SDS011;27783;42.782;23.274;2023-12-14T12:05:16;11.23;;;8.25;;
42118;SDS011;27783;42.782;23.274;2023-12-14T12:07:44;12.68;;;9.82;;
42118;SDS011;27783;42.782;23.274;2023-12-14T12:10:10;10.35;;;7.15;;
42118;SDS011;27783;42.782;23.274;2023-12-14T12:12:36;6.45;;;4.93;;
42118;SDS011;27783;42.782;23.274;2023-12-14T12:15:03;9.07;;;5.55;;
42118;SDS011;27783;42.782;23.274;2023-12-14T12:17:29;5.95;;;4.30;;
42118;SDS011;27783;42.782;23.274;2023-12-14T12:19:54;7.15;;;3.63;;
42118;SDS011;27783;42.782;23.274;2023-12-14T12:22:20;2.97;;;2.10;;
42118;SDS011;27783;42.782;23.274;2023-12-14T12:24:45;6.60;;;3.30;;
42118;SDS011;27783;42.782;23.274;2023-12-14T12:27:11;4.47;;;3.22;;
42118;SDS011;27783;42.782;23.274;2023-12-14T12:29:36;6.78;;;3.33;;
42118;SDS011;27783;42.782;23.274;2023-12-14T12:32:01;4.72;;;3.13;;
42118;SDS011;27783;42.782;23.274;2023-12-14T12:34:27;4.95;;;3.53;;
42118;SDS011;27783;42.782;23.274;2023-12-14T12:36:54;5.05;;;3.72;;
42118;SDS011;27783;42.782;23.274;2023-12-14T12:39:20;4.85;;;2.30;;
42118;SDS011;27783;42.782;23.274;2023-12-14T12:41:45;5.13;;;2.30;;
42118;SDS011;27783;42.782;23.274;2023-12-14T12:44:10;5.63;;;1.77;;
42118;SDS011;27783;42.782;23.274;2023-12-14T12:46:36;2.92;;;1.67;;
42118;SDS011;27783;42.782;23.274;2023-12-14T12:49:01;3.20;;;1.02;;
42118;SDS011;27783;42.782;23.274;2023-12-14T12:51:28;5.40;;;1.25;;
42118;SDS011;27783;42.782;23.274;2023-12-14T12:53:54;5.45;;;1.23;;
42118;SDS011;27783;42.782;23.274;2023-12-14T12:56:20;3.17;;;1.13;;
42118;SDS011;27783;42.782;23.274;2023-12-14T12:58:46;4.28;;;2.42;;
42118;SDS011;27783;42.782;23.274;2023-12-14T13:01:11;33.65;;;21.73;;
42118;SDS011;27783;42.782;23.274;2023-12-14T13:03:37;6.18;;;4.03;;
42118;SDS011;27783;42.782;23.274;2023-12-14T13:06:02;2.55;;;0.75;;
42118;SDS011;27783;42.782;23.274;2023-12-14T13:08:29;1.67;;;0.60;;
42118;SDS011;27783;42.782;23.274;2023-12-14T13:10:55;2.53;;;0.60;;
42118;SDS011;27783;42.782;23.274;2023-12-14T13:13:22;4.20;;;1.27;;
42118;SDS011;27783;42.782;23.274;2023-12-14T13:15:48;8.60;;;3.97;;
42118;SDS011;27783;42.782;23.274;2023-12-14T13:18:13;7.35;;;2.20;;
42118;SDS011;27783;42.782;23.274;2023-12-14T13:20:41;3.95;;;2.50;;
42118;SDS011;27783;42.782;23.274;2023-12-14T13:23:07;5.18;;;1.23;;
42118;SDS011;27783;42.782;23.274;2023-12-14T13:25:32;2.08;;;0.90;;
42118;SDS011;27783;42.782;23.274;2023-12-14T13:27:58;1.40;;;0.60;;
42118;SDS011;27783;42.782;23.274;2023-12-14T13:30:24;4.65;;;1.23;;
42118;SDS011;27783;42.782;23.274;2023-12-14T13:32:50;3.72;;;1.35;;
42118;SDS011;27783;42.782;23.274;2023-12-14T13:35:15;4.47;;;1.27;;
42118;SDS011;27783;42.782;23.274;2023-12-14T13:37:41;5.13;;;2.13;;
42118;SDS011;27783;42.782;23.274;2023-12-14T13:40:08;2.53;;;1.52;;
42118;SDS011;27783;42.782;23.274;2023-12-14T13:42:35;4.72;;;0.77;;
42118;SDS011;27783;42.782;23.274;2023-12-14T13:45:00;2.80;;;0.68;;
42118;SDS011;27783;42.782;23.274;2023-12-14T13:47:26;8.13;;;0.85;;
42118;SDS011;27783;42.782;23.274;2023-12-14T13:49:51;2.20;;;1.42;;
42118;SDS011;27783;42.782;23.274;2023-12-14T13:52:18;3.22;;;0.80;;
42118;SDS011;27783;42.782;23.274;2023-12-14T13:54:44;1.67;;;0.52;;
42118;SDS011;27783;42.782;23.274;2023-12-14T13:57:09;2.03;;;0.60;;
42118;SDS011;27783;42.782;23.274;2023-12-14T13:59:34;1.60;;;0.70;;
42118;SDS011;27783;42.782;23.274;2023-12-14T14:02:00;0.70;;;0.40;;
42118;SDS011;27783;42.782;23.274;2023-12-14T14:04:25;4.68;;;0.52;;
42118;SDS011;27783;42.782;23.274;2023-12-14T14:06:51;0.43;;;0.28;;
42118;SDS011;27783;42.782;23.274;2023-12-14T14:09:17;3.92;;;0.50;;
42118;SDS011;27783;42.782;23.274;2023-12-14T14:11:42;1.35;;;0.60;;
42118;SDS011;27783;42.782;23.274;2023-12-14T14:14:12;0.85;;;0.50;;
42118;SDS011;27783;42.782;23.274;2023-12-14T14:16:38;3.03;;;0.28;;
42118;SDS011;27783;42.782;23.274;2023-12-14T14:19:03;6.82;;;0.43;;
42118;SDS011;27783;42.782;23.274;2023-12-14T14:21:29;2.58;;;0.93;;
42118;SDS011;27783;42.782;23.274;2023-12-14T14:23:55;1.75;;;0.50;;
42118;SDS011;27783;42.782;23.274;2023-12-14T14:26:20;0.73;;;0.30;;
42118;SDS011;27783;42.782;23.274;2023-12-14T14:28:46;0.68;;;0.30;;
42118;SDS011;27783;42.782;23.274;2023-12-14T14:31:11;1.77;;;0.55;;